Coralville, Iowa
Current Conditions -  °F | °C
As of 7:52 AM on Thursday 30 Oct 2014 (Local Time) from KIOW Reporting Station
Overcast Overcast  
Wind Chill: 36°   Ceiling: 11000
Heat Index: 36°   Visibility: 10mi
Dew Point: 34°   Wind: 3mph
Humidity: 93%   Direction: 120°ESE
Pressure: 30.1"   Gusts: NA
Location:  41.68°N, 91.59°W
Report Text: KIOW 301252Z AUTO 12003KT 10SM OVC110 02/01 A3010 RMK AO2 SLP199 T00220011
Loading
Personal Weather Stations






























Interactive Weather Map
Tropical Storm Tracking
New forecast layout! Learn more

10-Day Weather Forecast

Advertisements
Track Severe Weather on mobile